createdAt,value
2023-05-21T00:00:53.882Z,100.00
2023-05-21T00:05:57.089Z,100.00
2023-05-21T00:10:59.749Z,100.00
2023-05-21T00:16:02.485Z,100.00
2023-05-21T00:21:05.960Z,100.00
2023-05-21T00:26:08.696Z,100.00
2023-05-21T00:31:11.338Z,100.00
2023-05-21T00:36:16.576Z,100.00
2023-05-21T00:41:19.838Z,100.00
2023-05-21T00:46:23.260Z,100.00
2023-05-21T00:51:30.443Z,100.00
2023-05-21T00:56:33.313Z,100.00
2023-05-21T01:01:37.501Z,100.00
2023-05-21T01:06:40.299Z,100.00
2023-05-21T01:11:46.980Z,100.00
2023-05-21T01:16:50.814Z,100.00
2023-05-21T01:22:00.544Z,100.00
2023-05-21T01:27:06.742Z,100.00
2023-05-21T01:32:38.608Z,100.00
2023-05-21T01:37:49.621Z,100.00
2023-05-21T01:42:52.707Z,100.00
2023-05-21T01:47:56.640Z,100.00
2023-05-21T01:53:01.319Z,100.00
2023-05-21T01:58:04.411Z,100.00
2023-05-21T02:03:08.176Z,100.00
2023-05-21T02:08:11.373Z,100.00
2023-05-21T02:13:14.017Z,100.00
2023-05-21T02:18:17.101Z,100.00
2023-05-21T02:23:40.071Z,100.00
2023-05-21T02:28:42.798Z,100.00
2023-05-21T02:33:45.556Z,100.00
2023-05-21T02:38:48.309Z,100.00
2023-05-21T02:43:51.185Z,100.00
2023-05-21T02:48:54.644Z,100.00
2023-05-21T02:53:57.704Z,100.00
2023-05-21T02:59:00.356Z,100.00
2023-05-21T03:04:03.000Z,100.00
2023-05-21T03:09:06.086Z,100.00
2023-05-21T03:14:09.965Z,100.00
2023-05-21T03:19:13.367Z,100.00
2023-05-21T03:24:16.111Z,100.00
2023-05-21T03:29:18.888Z,100.00
2023-05-21T03:34:21.913Z,100.00
2023-05-21T03:39:25.589Z,100.00
2023-05-21T03:44:32.629Z,100.00
2023-05-21T03:50:09.348Z,100.00
2023-05-21T03:55:12.716Z,100.00
2023-05-21T04:00:16.002Z,100.00
2023-05-21T04:05:19.231Z,100.00
2023-05-21T04:10:23.260Z,100.00
2023-05-21T04:15:27.595Z,100.00
2023-05-21T04:20:31.088Z,100.00
2023-05-21T04:25:35.249Z,100.00
2023-05-21T04:30:38.481Z,100.00
2023-05-21T04:35:44.625Z,100.00
2023-05-21T04:40:50.814Z,100.00
2023-05-21T04:45:56.536Z,100.00
2023-05-21T04:50:59.985Z,100.00
2023-05-21T04:56:04.121Z,100.00
2023-05-21T05:01:08.973Z,100.00
2023-05-21T05:06:11.735Z,100.00
2023-05-21T05:11:15.205Z,100.00
2023-05-21T05:16:18.486Z,100.00
2023-05-21T05:21:22.661Z,99.10
2023-05-21T05:26:26.203Z,95.26
2023-05-21T05:31:28.979Z,88.37
2023-05-21T05:36:31.738Z,88.62
2023-05-21T05:41:34.495Z,89.40
2023-05-21T05:46:38.299Z,89.42
2023-05-21T05:51:41.640Z,90.23
2023-05-21T05:56:44.325Z,90.39
2023-05-21T06:01:47.344Z,89.78
2023-05-21T06:06:50.157Z,91.48
2023-05-21T06:11:52.933Z,89.32
2023-05-21T06:16:55.923Z,87.90
2023-05-21T06:21:59.257Z,87.24
2023-05-21T06:27:02.196Z,87.14
2023-05-21T06:32:05.361Z,84.53
2023-05-21T06:37:08.107Z,84.00
2023-05-21T06:42:10.966Z,83.06
2023-05-21T06:47:27.455Z,78.76
2023-05-21T06:52:31.918Z,74.83
2023-05-21T06:57:38.371Z,75.35
2023-05-21T07:02:41.711Z,74.66
2023-05-21T07:07:44.584Z,72.17
2023-05-21T07:12:47.210Z,73.22
2023-05-21T07:17:51.279Z,73.81
2023-05-21T07:22:55.064Z,73.28
2023-05-21T07:27:58.570Z,70.48
2023-05-21T07:33:01.420Z,71.58
2023-05-21T07:38:04.850Z,74.26
2023-05-21T07:43:07.876Z,73.49
2023-05-21T07:48:12.456Z,73.67
2023-05-21T07:53:25.736Z,71.85
2023-05-21T07:58:32.611Z,71.26
2023-05-21T08:03:35.602Z,70.50
2023-05-21T08:08:38.649Z,69.92
2023-05-21T08:13:41.720Z,68.54
2023-05-21T08:18:47.150Z,67.00
2023-05-21T08:23:53.053Z,67.78
2023-05-21T08:28:56.583Z,68.78
2023-05-21T08:33:59.268Z,69.65
2023-05-21T08:39:14.070Z,70.33
2023-05-21T08:44:24.211Z,69.71
2023-05-21T08:49:31.074Z,68.64
2023-05-21T08:54:34.393Z,69.47
2023-05-21T08:59:40.121Z,69.31
2023-05-21T09:04:50.059Z,68.40
2023-05-21T09:09:57.580Z,66.73
2023-05-21T09:15:02.176Z,66.11
2023-05-21T09:20:16.535Z,64.48
2023-05-21T09:25:30.062Z,61.96
2023-05-21T09:30:38.317Z,62.44
2023-05-21T09:35:47.437Z,62.12
2023-05-21T09:40:54.848Z,60.53
2023-05-21T09:46:02.016Z,59.54
2023-05-21T09:51:18.649Z,59.67
2023-05-21T09:56:23.676Z,59.15
2023-05-21T10:01:27.500Z,58.39
2023-05-21T10:06:33.759Z,56.65
2023-05-21T10:11:37.509Z,55.63
2023-05-21T10:16:40.992Z,54.79
2023-05-21T10:21:45.042Z,53.35
2023-05-21T10:26:51.400Z,51.15
2023-05-21T10:31:54.027Z,49.89
2023-05-21T10:36:58.588Z,50.79
2023-05-21T10:42:18.702Z,50.57
2023-05-21T10:47:46.131Z,51.14
2023-05-21T10:53:10.648Z,50.93
2023-05-21T10:58:29.848Z,49.75
2023-05-21T11:03:37.427Z,47.65
2023-05-21T11:08:48.112Z,48.11
2023-05-21T11:13:50.843Z,48.09
2023-05-21T11:18:55.136Z,46.97
2023-05-21T11:24:02.833Z,46.01
2023-05-21T11:29:05.867Z,44.99
2023-05-21T11:34:11.576Z,43.57
2023-05-21T11:39:22.264Z,44.36
2023-05-21T11:44:42.756Z,45.40
2023-05-21T11:49:46.455Z,46.07
2023-05-21T11:54:54.148Z,46.82
2023-05-21T12:00:01.460Z,47.69
2023-05-21T12:05:10.189Z,48.47
2023-05-21T12:10:13.393Z,50.02
2023-05-21T12:15:18.098Z,51.45
2023-05-21T12:20:21.216Z,52.72
2023-05-21T12:25:23.996Z,53.73
2023-05-21T12:30:27.204Z,53.04
2023-05-21T12:35:30.655Z,52.28
2023-05-21T12:40:38.198Z,50.84
2023-05-21T12:45:41.621Z,49.43
2023-05-21T12:50:44.386Z,47.84
2023-05-21T12:55:47.341Z,48.28
2023-05-21T13:00:49.965Z,48.71
2023-05-21T13:06:00.082Z,48.53
2023-05-21T13:11:03.589Z,48.27
2023-05-21T13:16:06.678Z,48.56
2023-05-21T13:21:09.394Z,48.31
2023-05-21T13:26:12.089Z,47.59
2023-05-21T13:31:15.734Z,46.62
2023-05-21T13:36:18.381Z,45.62
2023-05-21T13:41:21.372Z,45.41
2023-05-21T13:46:24.222Z,45.64
2023-05-21T13:56:33.997Z,46.83
2023-05-21T14:01:36.869Z,46.75
2023-05-21T14:06:39.773Z,46.64
2023-05-21T14:11:42.724Z,46.26
2023-05-21T14:16:47.383Z,46.81
2023-05-21T14:21:52.334Z,47.95
2023-05-21T14:26:54.976Z,48.48
2023-05-21T14:31:57.579Z,49.03
2023-05-21T14:37:00.354Z,48.41
2023-05-21T14:42:07.644Z,47.37
2023-05-21T14:47:10.342Z,47.16
2023-05-21T14:52:12.970Z,48.09
2023-05-21T14:57:15.664Z,48.99
2023-05-21T15:02:18.366Z,50.13
2023-05-21T15:07:21.114Z,49.97
2023-05-21T15:12:23.797Z,50.44
2023-05-21T15:17:26.643Z,50.37
2023-05-21T15:22:29.435Z,50.26
2023-05-21T15:27:32.425Z,50.26
2023-05-21T15:32:35.060Z,51.12
2023-05-21T15:37:37.723Z,51.54
2023-05-21T15:42:40.325Z,52.23
2023-05-21T15:47:43.352Z,52.30
2023-05-21T15:52:46.070Z,52.80
2023-05-21T15:57:48.708Z,53.86
2023-05-21T16:02:51.574Z,53.74
2023-05-21T16:07:54.222Z,53.15
2023-05-21T16:12:56.908Z,52.04
2023-05-21T16:17:59.632Z,51.71
2023-05-21T16:23:03.841Z,51.81
2023-05-21T16:28:06.467Z,51.86
2023-05-21T16:33:09.750Z,52.00
2023-05-21T16:38:12.567Z,52.02
2023-05-21T16:43:15.888Z,52.65
2023-05-21T16:48:18.798Z,53.52
2023-05-21T16:53:21.787Z,54.10
2023-05-21T16:58:24.559Z,54.26
2023-05-21T17:03:27.938Z,55.58
2023-05-21T17:08:30.725Z,56.17
2023-05-21T17:13:33.616Z,57.18
2023-05-21T17:18:36.182Z,57.05
2023-05-21T17:23:38.901Z,57.70
2023-05-21T17:28:41.748Z,58.84
2023-05-21T17:33:44.350Z,59.49
2023-05-21T17:38:47.027Z,59.76
2023-05-21T17:43:50.361Z,60.60
2023-05-21T17:48:53.206Z,61.24
2023-05-21T17:53:56.393Z,61.63
2023-05-21T17:58:59.107Z,61.82
2023-05-21T18:04:02.981Z,62.86
2023-05-21T18:09:10.574Z,63.58
2023-05-21T18:14:13.234Z,64.98
2023-05-21T18:19:15.933Z,66.98
2023-05-21T18:24:18.675Z,68.59
2023-05-21T18:29:21.270Z,69.59
2023-05-21T18:34:23.907Z,71.32
2023-05-21T18:39:27.882Z,72.48
2023-05-21T18:44:32.651Z,73.44
2023-05-21T18:49:36.208Z,74.54
2023-05-21T18:54:39.236Z,75.55
2023-05-21T18:59:41.833Z,76.99
2023-05-21T19:04:44.640Z,77.86
2023-05-21T19:09:48.828Z,79.04
2023-05-21T19:14:51.941Z,80.15
2023-05-21T19:19:56.236Z,80.67
2023-05-21T19:24:59.562Z,81.11
2023-05-21T19:30:02.218Z,81.58
2023-05-21T19:35:11.408Z,82.93
2023-05-21T19:40:14.141Z,83.79
2023-05-21T19:45:16.761Z,84.51
2023-05-21T19:50:19.490Z,84.93
2023-05-21T19:55:22.821Z,85.16
2023-05-21T20:00:26.419Z,85.71
2023-05-21T20:05:29.027Z,86.16
2023-05-21T20:10:31.676Z,87.25
2023-05-21T20:15:34.401Z,87.84
2023-05-21T20:20:38.165Z,88.32
2023-05-21T20:25:41.133Z,88.30
2023-05-21T20:30:57.731Z,89.10
2023-05-21T20:36:01.139Z,89.51
2023-05-21T20:41:04.913Z,90.03
2023-05-21T20:46:07.920Z,90.25
2023-05-21T20:51:11.192Z,90.53
2023-05-21T20:56:17.012Z,91.21
2023-05-21T21:01:21.036Z,90.97
2023-05-21T21:06:26.158Z,91.48
2023-05-21T21:11:28.775Z,91.70
2023-05-21T21:16:31.376Z,92.29
2023-05-21T21:21:34.181Z,92.12
2023-05-21T21:26:37.469Z,91.63
2023-05-21T21:31:40.308Z,91.64
2023-05-21T21:36:42.937Z,92.23
2023-05-21T21:41:45.975Z,93.34
2023-05-21T21:46:51.610Z,94.04
2023-05-21T21:51:57.828Z,94.12
2023-05-21T21:57:00.863Z,93.68
2023-05-21T22:02:03.486Z,94.64
2023-05-21T22:07:06.203Z,94.46
2023-05-21T22:12:09.545Z,94.53
2023-05-21T22:17:12.213Z,94.41
2023-05-21T22:22:14.881Z,95.04
2023-05-21T22:27:17.471Z,95.75
2023-05-21T22:32:20.336Z,96.31
2023-05-21T22:37:26.199Z,96.10
2023-05-21T22:42:28.830Z,96.58
2023-05-21T22:47:32.313Z,96.10
2023-05-21T22:52:35.179Z,96.53
2023-05-21T22:57:38.094Z,96.69
2023-05-21T23:02:40.851Z,97.34
2023-05-21T23:07:43.524Z,97.04
2023-05-21T23:12:46.154Z,97.50
2023-05-21T23:17:48.951Z,97.62
2023-05-21T23:22:52.466Z,97.98
2023-05-21T23:27:55.636Z,98.61
2023-05-21T23:32:58.292Z,98.41
2023-05-21T23:38:01.028Z,97.90
2023-05-21T23:43:04.887Z,97.71
2023-05-21T23:48:07.882Z,97.97
2023-05-21T23:53:10.800Z,97.91
2023-05-21T23:58:13.422Z,98.64
